createdAt,value
2018-12-10T00:01:23.032Z,76.33
2018-12-10T00:03:56.574Z,76.43
2018-12-10T00:06:27.146Z,75.58
2018-12-10T00:08:58.128Z,75.78
2018-12-10T00:11:59.111Z,75.39
2018-12-10T00:14:29.750Z,74.96
2018-12-10T00:16:59.535Z,76.17
2018-12-10T00:19:29.423Z,75.37
2018-12-10T00:21:59.853Z,75.16
2018-12-10T00:24:29.927Z,75.74
2018-12-10T00:26:59.606Z,75.17
2018-12-10T00:29:29.311Z,75.02
2018-12-10T00:31:57.866Z,75.16
2018-12-10T00:34:26.870Z,75.91
2018-12-10T00:36:56.734Z,75.04
2018-12-10T00:39:26.550Z,76.03
2018-12-10T00:41:55.098Z,75.30
2018-12-10T00:44:24.450Z,75.01
2018-12-10T00:46:53.215Z,76.66
2018-12-10T00:49:22.069Z,77.01
2018-12-10T00:51:51.034Z,76.78
2018-12-10T00:54:20.375Z,77.68
2018-12-10T00:56:49.218Z,76.18
2018-12-10T00:59:18.517Z,76.53
2018-12-10T01:01:48.962Z,76.59
2018-12-10T01:04:18.388Z,76.54
2018-12-10T01:06:47.684Z,76.54
2018-12-10T01:09:16.512Z,77.06
2018-12-10T01:11:47.144Z,76.92
2018-12-10T01:14:17.276Z,76.52
2018-12-10T01:16:45.949Z,75.06
2018-12-10T01:19:16.302Z,75.08
2018-12-10T01:21:47.304Z,75.04
2018-12-10T01:24:17.931Z,73.87
2018-12-10T01:26:48.103Z,75.31
2018-12-10T01:29:17.250Z,75.40
2018-12-10T01:31:46.710Z,76.40
2018-12-10T01:34:16.102Z,77.71
2018-12-10T01:36:47.796Z,77.46
2018-12-10T01:39:17.838Z,77.85
2018-12-10T01:41:48.509Z,77.36
2018-12-10T01:44:17.328Z,77.33
2018-12-10T01:46:46.503Z,76.61
2018-12-10T01:49:18.150Z,75.85
2018-12-10T01:51:51.701Z,76.09
2018-12-10T01:54:22.223Z,75.79
2018-12-10T01:56:51.490Z,76.70
2018-12-10T01:59:21.386Z,76.92
2018-12-10T02:01:52.806Z,75.85
2018-12-10T02:04:24.526Z,75.34
2018-12-10T02:06:53.145Z,76.82
2018-12-10T02:09:24.014Z,74.95
2018-12-10T02:11:53.248Z,75.31
2018-12-10T02:14:23.612Z,74.05
2018-12-10T02:16:53.414Z,74.42
2018-12-10T02:19:23.741Z,74.36
2018-12-10T02:21:52.915Z,74.31
2018-12-10T02:24:22.151Z,72.64
2018-12-10T02:26:54.549Z,73.55
2018-12-10T02:29:25.087Z,74.31
2018-12-10T02:31:55.295Z,73.71
2018-12-10T02:34:25.247Z,73.90
2018-12-10T02:36:55.176Z,72.32
2018-12-10T02:39:23.696Z,73.50
2018-12-10T02:41:53.836Z,74.56
2018-12-10T02:44:22.990Z,73.99
2018-12-10T02:46:52.463Z,74.35
2018-12-10T02:49:21.536Z,73.57
2018-12-10T02:51:50.934Z,74.60
2018-12-10T02:54:20.362Z,73.46
2018-12-10T02:56:49.944Z,74.60
2018-12-10T02:59:18.443Z,74.37
2018-12-10T03:01:47.380Z,73.89
2018-12-10T03:04:19.894Z,73.37
2018-12-10T03:06:48.946Z,73.16
2018-12-10T03:09:17.692Z,73.10
2018-12-10T03:11:47.011Z,73.41
2018-12-10T03:14:17.212Z,73.81
2018-12-10T03:16:47.881Z,74.07
2018-12-10T03:19:17.975Z,73.39
2018-12-10T03:21:48.663Z,73.83
2018-12-10T03:24:19.370Z,72.14
2018-12-10T03:26:48.030Z,71.87
2018-12-10T03:29:18.861Z,73.67
2018-12-10T03:31:48.440Z,72.36
2018-12-10T03:34:17.242Z,71.61
2018-12-10T03:36:46.255Z,72.75
2018-12-10T03:39:16.198Z,72.63
2018-12-10T03:41:46.132Z,71.33
2018-12-10T03:44:14.885Z,72.06
2018-12-10T03:46:43.589Z,73.28
2018-12-10T03:49:13.586Z,72.82
2018-12-10T03:51:42.476Z,74.39
2018-12-10T03:54:11.777Z,74.04
2018-12-10T03:56:42.122Z,74.43
2018-12-10T03:59:11.859Z,74.82
2018-12-10T04:01:41.933Z,74.82
2018-12-10T04:04:12.026Z,73.46
2018-12-10T04:06:42.077Z,74.49
2018-12-10T04:09:10.647Z,74.84
2018-12-10T04:11:40.771Z,76.01
2018-12-10T04:14:11.130Z,75.52
2018-12-10T04:16:40.621Z,75.52
2018-12-10T04:19:09.272Z,75.20
2018-12-10T04:21:37.888Z,75.03
2018-12-10T04:24:08.918Z,75.69
2018-12-10T04:26:40.567Z,75.78
2018-12-10T04:29:10.586Z,75.74
2018-12-10T04:31:39.701Z,74.63
2018-12-10T04:34:09.343Z,76.15
2018-12-10T04:36:38.596Z,75.62
2018-12-10T04:39:09.106Z,75.08
2018-12-10T04:41:38.405Z,76.91
2018-12-10T04:44:07.824Z,75.38
2018-12-10T04:46:38.778Z,75.84
2018-12-10T04:49:07.430Z,75.84
2018-12-10T04:51:37.460Z,75.93
2018-12-10T04:54:06.543Z,74.82
2018-12-10T04:56:36.135Z,74.40
2018-12-10T04:59:05.310Z,75.72
2018-12-10T05:01:33.847Z,77.37
2018-12-10T05:04:03.761Z,76.63
2018-12-10T05:06:32.646Z,77.99
2018-12-10T05:09:02.584Z,76.82
2018-12-10T05:11:33.031Z,79.07
2018-12-10T05:14:02.164Z,76.38
2018-12-10T05:16:32.139Z,77.86
2018-12-10T05:19:02.005Z,79.48
2018-12-10T05:21:32.298Z,81.80
2018-12-10T05:24:01.113Z,84.62
2018-12-10T05:26:31.367Z,83.67
2018-12-10T05:29:02.976Z,85.16
2018-12-10T05:31:33.525Z,85.86
2018-12-10T05:34:03.680Z,85.55
2018-12-10T05:36:35.162Z,84.36
2018-12-10T05:39:05.361Z,85.23
2018-12-10T05:41:35.012Z,85.76
2018-12-10T05:44:05.402Z,83.38
2018-12-10T05:46:34.905Z,81.05
2018-12-10T05:49:06.088Z,80.53
2018-12-10T05:51:36.802Z,80.49
2018-12-10T05:54:07.039Z,82.66
2018-12-10T05:56:37.102Z,82.27
2018-12-10T05:59:06.657Z,83.60
2018-12-10T06:01:36.010Z,82.02
2018-12-10T06:04:05.252Z,82.64
2018-12-10T06:06:35.506Z,81.49
2018-12-10T06:09:07.009Z,81.54
2018-12-10T06:11:36.830Z,82.00
2018-12-10T06:14:07.038Z,81.82
2018-12-10T06:16:36.296Z,81.82
2018-12-10T06:19:05.450Z,81.17
2018-12-10T06:21:34.733Z,81.25
2018-12-10T06:24:03.844Z,81.26
2018-12-10T06:26:33.874Z,80.34
2018-12-10T06:29:05.994Z,79.85
2018-12-10T06:31:35.503Z,80.84
2018-12-10T06:34:05.639Z,80.38
2018-12-10T06:36:38.142Z,79.44
2018-12-10T06:39:08.325Z,81.11
2018-12-10T06:41:38.247Z,80.81
2018-12-10T06:44:07.563Z,80.85
2018-12-10T06:46:39.088Z,81.40
2018-12-10T06:49:08.925Z,81.40
2018-12-10T06:51:39.986Z,81.08
2018-12-10T06:54:11.093Z,79.75
2018-12-10T06:56:40.354Z,81.02
2018-12-10T06:59:09.182Z,81.29
2018-12-10T07:01:41.160Z,81.68
2018-12-10T07:04:11.556Z,81.64
2018-12-10T07:06:40.552Z,81.02
2018-12-10T07:09:11.349Z,81.08
2018-12-10T07:11:40.634Z,79.93
2018-12-10T07:14:12.610Z,80.01
2018-12-10T07:16:42.111Z,80.85
2018-12-10T07:19:11.801Z,80.85
2018-12-10T07:21:40.374Z,80.30
2018-12-10T07:24:09.377Z,79.92
2018-12-10T07:26:38.622Z,79.77
2018-12-10T07:29:09.862Z,79.93
2018-12-10T07:31:39.538Z,79.54
2018-12-10T07:34:09.620Z,78.35
2018-12-10T07:36:38.355Z,78.03
2018-12-10T07:39:08.193Z,77.75
2018-12-10T07:41:37.797Z,79.97
2018-12-10T07:44:07.598Z,78.18
2018-12-10T07:48:06.008Z,77.56
2018-12-10T07:50:36.604Z,77.70
2018-12-10T07:53:09.484Z,76.97
2018-12-10T07:55:38.694Z,77.56
2018-12-10T07:58:08.901Z,77.70
2018-12-10T08:00:38.369Z,78.28
2018-12-10T08:03:08.283Z,77.22
2018-12-10T08:05:37.862Z,77.60
2018-12-10T08:08:07.359Z,78.12
2018-12-10T08:10:36.218Z,78.13
2018-12-10T08:13:05.827Z,75.52
2018-12-10T08:15:34.742Z,67.69
2018-12-10T08:18:06.333Z,65.03
2018-12-10T08:20:35.747Z,68.35
2018-12-10T08:23:04.254Z,68.86
2018-12-10T08:25:34.323Z,68.93
2018-12-10T08:28:03.657Z,69.47
2018-12-10T08:30:33.691Z,69.19
2018-12-10T08:33:23.273Z,70.35
2018-12-10T08:35:51.829Z,73.52
2018-12-10T08:38:21.695Z,71.43
2018-12-10T08:40:51.833Z,71.68
2018-12-10T08:43:21.164Z,70.17
2018-12-10T08:45:50.611Z,70.12
2018-12-10T08:48:19.537Z,70.58
2018-12-10T08:50:49.013Z,70.43
2018-12-10T08:53:20.379Z,72.82
2018-12-10T08:55:56.134Z,72.52
2018-12-10T08:58:26.205Z,70.46
2018-12-10T09:00:56.383Z,69.24
2018-12-10T09:03:25.616Z,69.81
2018-12-10T09:05:54.716Z,69.08
2018-12-10T09:08:24.057Z,69.12
2018-12-10T09:11:02.566Z,69.40
2018-12-10T09:13:31.614Z,67.37
2018-12-10T09:16:02.733Z,69.22
2018-12-10T09:18:32.192Z,68.65
2018-12-10T09:21:02.072Z,69.61
2018-12-10T09:23:33.074Z,68.40
2018-12-10T09:26:04.513Z,68.61
2018-12-10T09:28:35.131Z,67.92
2018-12-10T09:31:08.599Z,67.43
2018-12-10T09:33:38.051Z,67.85
2018-12-10T09:36:08.699Z,67.35
2018-12-10T09:38:38.491Z,67.10
2018-12-10T09:41:09.958Z,67.76
2018-12-10T09:43:39.906Z,57.53
2018-12-10T09:46:08.742Z,64.93
2018-12-10T09:48:40.966Z,67.78
2018-12-10T09:51:11.158Z,68.42
2018-12-10T09:53:41.668Z,67.39
2018-12-10T09:56:11.876Z,67.88
2018-12-10T09:58:41.669Z,68.65
2018-12-10T10:01:11.460Z,68.87
2018-12-10T10:03:42.117Z,69.46
2018-12-10T10:06:11.359Z,70.99
2018-12-10T10:08:39.978Z,70.40
2018-12-10T10:11:09.949Z,71.07
2018-12-10T10:13:40.227Z,71.15
2018-12-10T10:16:10.729Z,69.38
2018-12-10T10:18:40.489Z,69.86
2018-12-10T10:21:11.602Z,69.40
2018-12-10T10:23:42.408Z,69.37
2018-12-10T10:26:13.053Z,69.32
2018-12-10T10:28:43.591Z,69.50
2018-12-10T10:31:14.249Z,69.74
2018-12-10T10:33:44.812Z,70.81
2018-12-10T10:36:13.746Z,71.22
2018-12-10T10:38:43.116Z,70.93
2018-12-10T10:41:13.394Z,70.67
2018-12-10T10:43:42.807Z,71.01
2018-12-10T10:46:12.010Z,71.60
2018-12-10T10:48:42.197Z,71.03
2018-12-10T10:51:11.991Z,68.58
2018-12-10T10:53:40.794Z,70.69
2018-12-10T10:56:10.394Z,70.47
2018-12-10T10:58:39.261Z,72.21
2018-12-10T11:01:18.428Z,70.56
2018-12-10T11:03:48.492Z,71.18
2018-12-10T11:06:19.059Z,71.69
2018-12-10T11:08:49.569Z,70.36
2018-12-10T11:11:19.814Z,72.69
2018-12-10T11:13:59.892Z,70.30
2018-12-10T11:16:28.698Z,73.39
2018-12-10T11:18:58.594Z,71.11
2018-12-10T11:21:29.481Z,72.18
2018-12-10T11:23:59.509Z,72.29
2018-12-10T11:26:30.581Z,72.05
2018-12-10T11:29:00.021Z,70.80
2018-12-10T11:31:33.186Z,70.25
2018-12-10T11:34:03.742Z,70.85
2018-12-10T11:36:32.848Z,68.90
2018-12-10T11:39:01.414Z,69.15
2018-12-10T11:41:32.495Z,68.57
2018-12-10T11:44:02.633Z,68.61
2018-12-10T11:46:31.690Z,70.35
2018-12-10T11:49:01.442Z,70.21
2018-12-10T11:51:43.764Z,67.85
2018-12-10T11:54:14.423Z,67.27
2018-12-10T11:56:44.319Z,68.64
2018-12-10T11:59:13.978Z,66.30
2018-12-10T12:01:43.354Z,68.10
2018-12-10T12:04:12.039Z,66.39
2018-12-10T12:06:43.027Z,67.13
2018-12-10T12:09:13.767Z,67.96
2018-12-10T12:11:42.829Z,67.08
2018-12-10T12:14:14.238Z,67.12
2018-12-10T12:16:44.290Z,67.94
2018-12-10T12:19:15.263Z,67.58
2018-12-10T12:21:45.444Z,68.52
2018-12-10T12:24:15.504Z,67.48
2018-12-10T12:26:45.627Z,67.81
2018-12-10T12:29:17.553Z,66.90
2018-12-10T12:31:48.346Z,68.09
2018-12-10T12:34:17.680Z,66.17
2018-12-10T12:36:47.339Z,65.45
2018-12-10T12:39:18.194Z,64.25
2018-12-10T12:41:48.145Z,64.17
2018-12-10T12:44:17.113Z,64.48
2018-12-10T12:46:48.974Z,64.75
2018-12-10T12:49:19.656Z,65.17
2018-12-10T12:51:48.754Z,64.43
2018-12-10T12:54:20.224Z,63.69
2018-12-10T12:56:48.958Z,63.79
2018-12-10T12:59:19.851Z,64.87
2018-12-10T13:01:51.420Z,62.62
2018-12-10T13:04:21.682Z,61.17
2018-12-10T13:06:51.269Z,60.12
2018-12-10T13:09:21.927Z,62.02
2018-12-10T13:11:52.450Z,62.71
2018-12-10T13:14:21.175Z,61.70
2018-12-10T13:16:49.959Z,61.14
2018-12-10T13:19:19.850Z,61.91
2018-12-10T13:21:49.161Z,61.96
2018-12-10T13:24:18.075Z,62.91
2018-12-10T13:26:48.975Z,64.40
2018-12-10T13:29:20.207Z,63.33
2018-12-10T13:31:49.169Z,65.46
2018-12-10T13:34:18.150Z,63.98
2018-12-10T13:36:49.431Z,63.51
2018-12-10T13:39:18.755Z,64.46
2018-12-10T13:41:50.329Z,65.73
2018-12-10T13:44:19.755Z,66.37
2018-12-10T13:46:49.834Z,64.88
2018-12-10T13:49:20.997Z,64.75
2018-12-10T13:51:51.140Z,64.66
2018-12-10T13:54:19.884Z,65.50
2018-12-10T13:56:48.831Z,65.95
2018-12-10T13:59:18.390Z,65.68
2018-12-10T14:01:49.236Z,65.55
2018-12-10T14:04:23.972Z,65.86
2018-12-10T14:06:53.192Z,65.62
2018-12-10T14:09:23.990Z,65.26
2018-12-10T14:11:53.275Z,65.28
2018-12-10T14:14:24.454Z,64.96
2018-12-10T14:16:56.671Z,63.89
2018-12-10T14:19:36.090Z,64.18
2018-12-10T14:22:05.214Z,62.09
2018-12-10T14:24:34.159Z,62.07
2018-12-10T14:27:04.545Z,64.92
2018-12-10T14:29:35.193Z,64.40
2018-12-10T14:32:06.018Z,64.14
2018-12-10T14:34:36.006Z,65.64
2018-12-10T14:37:06.408Z,66.33
2018-12-10T14:39:37.802Z,66.65
2018-12-10T14:42:13.418Z,64.83
2018-12-10T14:44:42.159Z,65.98
2018-12-10T14:47:15.027Z,64.10
2018-12-10T14:49:44.205Z,65.15
2018-12-10T14:52:14.039Z,64.66
2018-12-10T14:54:44.779Z,64.87
2018-12-10T14:57:15.386Z,65.10
2018-12-10T14:59:46.420Z,64.60
2018-12-10T15:02:18.312Z,65.07
2018-12-10T15:04:51.828Z,67.38
2018-12-10T15:07:22.647Z,70.44
2018-12-10T15:09:52.662Z,71.71
2018-12-10T15:12:22.679Z,70.69
2018-12-10T15:14:51.274Z,71.23
2018-12-10T15:17:20.263Z,70.95
2018-12-10T15:19:49.810Z,69.53
2018-12-10T15:22:19.124Z,70.53
2018-12-10T15:24:49.251Z,69.94
2018-12-10T15:27:18.991Z,70.04
2018-12-10T15:29:50.027Z,69.63
2018-12-10T15:32:21.296Z,68.87
2018-12-10T15:34:50.260Z,67.85
2018-12-10T15:37:21.561Z,67.75
2018-12-10T15:39:51.467Z,66.43
2018-12-10T15:42:21.543Z,66.91
2018-12-10T15:44:50.576Z,67.75
2018-12-10T15:47:19.755Z,66.82
2018-12-10T15:49:50.702Z,66.25
2018-12-10T15:52:19.883Z,68.20
2018-12-10T15:54:49.887Z,67.73
2018-12-10T15:57:20.079Z,68.81
2018-12-10T15:59:50.929Z,69.28
2018-12-10T16:02:21.182Z,71.02
2018-12-10T16:04:50.325Z,70.27
2018-12-10T16:07:20.532Z,70.70
2018-12-10T16:09:49.346Z,72.23
2018-12-10T16:12:23.561Z,70.26
2018-12-10T16:14:54.321Z,71.17
2018-12-10T16:17:25.523Z,72.24
2018-12-10T16:19:55.967Z,71.07
2018-12-10T16:22:26.166Z,71.16
2018-12-10T16:24:55.618Z,71.11
2018-12-10T16:27:26.417Z,69.83
2018-12-10T16:29:55.301Z,71.29
2018-12-10T16:32:23.887Z,71.25
2018-12-10T16:34:55.387Z,71.97
2018-12-10T16:37:25.046Z,69.48
2018-12-10T16:39:54.366Z,69.61
2018-12-10T16:42:30.082Z,70.96
2018-12-10T16:44:59.280Z,70.92
2018-12-10T16:47:29.545Z,72.11
2018-12-10T16:49:58.214Z,72.53
2018-12-10T16:52:27.908Z,70.36
2018-12-10T16:54:59.750Z,69.98
2018-12-10T16:57:29.054Z,70.14
2018-12-10T17:02:39.545Z,69.53
2018-12-10T17:05:12.118Z,70.31
2018-12-10T17:07:43.391Z,69.30
2018-12-10T17:10:13.171Z,69.54
2018-12-10T17:12:42.830Z,69.26
2018-12-10T17:15:13.989Z,68.98
2018-12-10T17:17:43.710Z,68.54
2018-12-10T17:20:13.287Z,68.79
2018-12-10T17:22:41.973Z,69.04
2018-12-10T17:25:11.530Z,70.17
2018-12-10T17:27:41.475Z,70.01
2018-12-10T17:30:11.118Z,70.50
2018-12-10T17:32:40.332Z,69.82
2018-12-10T17:35:13.226Z,69.51
2018-12-10T17:37:42.167Z,69.85
2018-12-10T17:40:13.070Z,69.33
2018-12-10T17:42:43.009Z,69.73
2018-12-10T17:46:42.651Z,70.78
2018-12-10T17:49:13.252Z,71.70
2018-12-10T17:51:42.110Z,71.44
2018-12-10T17:54:11.251Z,70.12
2018-12-10T17:56:41.743Z,69.88
2018-12-10T17:59:12.360Z,71.16
2018-12-10T18:01:40.893Z,69.26
2018-12-10T18:04:10.455Z,69.11
2018-12-10T18:06:39.472Z,68.57
2018-12-10T18:09:08.629Z,68.90
2018-12-10T18:11:38.158Z,68.77
2018-12-10T18:14:08.736Z,67.96
2018-12-10T18:16:38.578Z,69.98
2018-12-10T18:19:08.375Z,70.09
2018-12-10T18:21:45.568Z,70.64
2018-12-10T18:24:15.050Z,70.07
2018-12-10T18:26:44.675Z,70.71
2018-12-10T18:29:14.614Z,69.68
2018-12-10T18:31:44.117Z,70.18
2018-12-10T18:34:12.833Z,71.12
2018-12-10T18:36:43.589Z,69.63
2018-12-10T18:39:12.966Z,70.42
2018-12-10T18:41:42.413Z,71.62
2018-12-10T18:44:11.453Z,70.62
2018-12-10T18:46:41.186Z,71.60
2018-12-10T18:49:10.546Z,71.03
2018-12-10T18:51:39.625Z,69.62
2018-12-10T18:54:09.439Z,70.23
2018-12-10T18:56:39.428Z,72.21
2018-12-10T18:59:10.917Z,71.46
2018-12-10T19:01:41.534Z,72.35
2018-12-10T19:04:18.117Z,73.11
2018-12-10T19:06:47.692Z,73.73
2018-12-10T19:09:16.787Z,78.22
2018-12-10T19:11:47.701Z,78.66
2018-12-10T19:14:19.171Z,77.90
2018-12-10T19:16:48.797Z,80.24
2018-12-10T19:19:17.292Z,79.65
2018-12-10T19:21:46.043Z,79.91
2018-12-10T19:24:14.920Z,80.89
2018-12-10T19:26:45.870Z,81.41
2018-12-10T19:29:16.287Z,81.86
2018-12-10T19:31:45.628Z,83.05
2018-12-10T19:34:15.955Z,83.41
2018-12-10T19:36:47.197Z,83.78
2018-12-10T19:39:17.302Z,83.96
2018-12-10T19:41:48.367Z,82.49
2018-12-10T19:44:21.443Z,83.57
2018-12-10T19:46:50.539Z,84.96
2018-12-10T19:49:20.246Z,83.87
2018-12-10T19:51:49.543Z,83.25
2018-12-10T19:54:19.785Z,83.67
2018-12-10T19:56:49.364Z,82.67
2018-12-10T19:59:18.894Z,82.14
2018-12-10T20:01:47.815Z,81.70
2018-12-10T20:04:17.087Z,81.96
2018-12-10T20:06:51.457Z,83.12
2018-12-10T20:09:20.021Z,82.99
2018-12-10T20:11:50.727Z,81.35
2018-12-10T20:14:20.325Z,80.29
2018-12-10T20:16:52.231Z,79.27
2018-12-10T20:19:37.395Z,79.81
2018-12-10T20:22:07.341Z,82.08
2018-12-10T20:24:36.690Z,82.67
2018-12-10T20:27:09.075Z,82.25
2018-12-10T20:29:44.629Z,80.76
2018-12-10T20:32:15.994Z,81.37
2018-12-10T20:34:45.740Z,81.84
2018-12-10T20:37:15.427Z,80.78
2018-12-10T20:39:44.281Z,81.72
2018-12-10T20:42:13.950Z,82.51
2018-12-10T20:44:44.600Z,82.02
2018-12-10T20:47:13.955Z,81.75
2018-12-10T20:49:42.978Z,80.03
2018-12-10T20:52:13.285Z,80.87
2018-12-10T20:54:43.699Z,79.77
2018-12-10T20:57:13.252Z,81.06
2018-12-10T20:59:43.436Z,82.71
2018-12-10T21:02:13.271Z,81.32
2018-12-10T21:04:42.611Z,82.18
2018-12-10T21:07:11.402Z,79.81
2018-12-10T21:09:41.486Z,78.68
2018-12-10T21:12:12.051Z,80.26
2018-12-10T21:14:40.591Z,81.05
2018-12-10T21:17:11.226Z,83.00
2018-12-10T21:19:40.917Z,83.15
2018-12-10T21:22:10.316Z,80.21
2018-12-10T21:24:40.834Z,80.40
2018-12-10T21:27:11.459Z,80.74
2018-12-10T21:29:42.254Z,80.25
2018-12-10T21:32:11.018Z,79.37
2018-12-10T21:34:40.658Z,79.50
2018-12-10T21:37:10.504Z,79.07
2018-12-10T21:39:40.455Z,78.51
2018-12-10T21:42:11.838Z,79.61
2018-12-10T21:44:41.979Z,80.14
2018-12-10T21:47:12.028Z,78.93
2018-12-10T21:49:40.716Z,79.14
2018-12-10T21:52:09.550Z,78.36
2018-12-10T21:54:38.691Z,78.47
2018-12-10T21:57:07.243Z,79.62
2018-12-10T21:59:36.324Z,77.85
2018-12-10T22:02:05.883Z,78.88
2018-12-10T22:04:36.211Z,77.19
2018-12-10T22:07:06.158Z,76.78
2018-12-10T22:09:35.512Z,77.85
2018-12-10T22:12:04.288Z,78.74
2018-12-10T22:14:34.304Z,78.79
2018-12-10T22:17:05.411Z,78.35
2018-12-10T22:19:36.932Z,77.67
2018-12-10T22:22:05.775Z,74.86
2018-12-10T22:24:37.923Z,75.26
2018-12-10T22:27:08.199Z,75.56
2018-12-10T22:29:36.894Z,77.92
2018-12-10T22:32:06.447Z,76.18
2018-12-10T22:34:35.658Z,77.21
2018-12-10T22:37:05.624Z,75.73
2018-12-10T22:39:35.884Z,74.83
2018-12-10T22:42:09.164Z,74.72
2018-12-10T22:44:37.976Z,74.79
2018-12-10T22:47:07.186Z,71.71
2018-12-10T22:56:23.646Z,76.45
2018-12-10T22:58:52.506Z,75.26
2018-12-10T23:01:23.771Z,75.29
2018-12-10T23:03:52.291Z,74.99
2018-12-10T23:06:22.310Z,74.48
2018-12-10T23:08:51.410Z,72.93
2018-12-10T23:11:23.414Z,74.54
2018-12-10T23:13:52.093Z,71.49
2018-12-10T23:16:20.594Z,72.64
2018-12-10T23:18:50.271Z,72.74
2018-12-10T23:21:20.695Z,72.15
2018-12-10T23:23:49.824Z,72.48
2018-12-10T23:26:21.883Z,71.17
2018-12-10T23:28:51.922Z,72.27
2018-12-10T23:31:22.142Z,72.83
2018-12-10T23:33:51.111Z,75.06
2018-12-10T23:36:20.897Z,75.94
2018-12-10T23:38:51.084Z,75.04
2018-12-10T23:41:20.174Z,76.63
2018-12-10T23:43:49.472Z,76.70
2018-12-10T23:46:19.285Z,76.79
2018-12-10T23:48:48.538Z,78.03
2018-12-10T23:51:18.394Z,77.24
2018-12-10T23:53:50.571Z,77.75
2018-12-10T23:56:19.709Z,77.40
2018-12-10T23:58:49.677Z,76.92
